createdAt,value
2024-02-21T00:01:16.407Z,101818.09
2024-02-21T00:03:45.043Z,101807.41
2024-02-21T00:06:13.555Z,101815.31
2024-02-21T00:08:42.262Z,101811.72
2024-02-21T00:11:10.986Z,101805.44
2024-02-21T00:13:39.552Z,101805.13
2024-02-21T00:16:09.665Z,101804.00
2024-02-21T00:18:38.174Z,101804.59
2024-02-21T00:21:06.732Z,101793.13
2024-02-21T00:23:35.336Z,101785.44
2024-02-21T00:26:03.986Z,101788.25
2024-02-21T00:28:32.558Z,101790.94
2024-02-21T00:31:01.089Z,101791.41
2024-02-21T00:33:31.039Z,101779.97
2024-02-21T00:35:59.699Z,101781.59
2024-02-21T00:38:28.350Z,101782.41
2024-02-21T00:40:56.897Z,101780.06
2024-02-21T00:43:25.847Z,101774.56
2024-02-21T00:45:54.435Z,101779.19
2024-02-21T00:48:23.062Z,101772.38
2024-02-21T00:50:53.042Z,101775.13
2024-02-21T00:53:21.618Z,101760.84
2024-02-21T00:55:50.170Z,101760.31
2024-02-21T00:58:18.720Z,101766.91
2024-02-21T01:00:47.421Z,101763.06
2024-02-21T01:03:16.339Z,101764.47
2024-02-21T01:05:44.850Z,101760.34
2024-02-21T01:08:14.751Z,101756.53
2024-02-21T01:10:43.271Z,101745.84
2024-02-21T01:13:11.782Z,101746.34
2024-02-21T01:15:40.409Z,101753.81
2024-02-21T01:18:09.038Z,101745.59
2024-02-21T01:20:37.579Z,101746.34
2024-02-21T01:23:06.145Z,101754.25
2024-02-21T01:25:36.110Z,101741.97
2024-02-21T01:28:05.049Z,101749.66
2024-02-21T01:30:33.809Z,101745.53
2024-02-21T01:33:02.391Z,101741.16
2024-02-21T01:35:31.023Z,101735.97
2024-02-21T01:37:59.604Z,101732.44
2024-02-21T01:40:28.232Z,101732.97
2024-02-21T01:42:58.326Z,101725.31
2024-02-21T01:45:26.862Z,101725.84
2024-02-21T01:47:55.412Z,101725.88
2024-02-21T01:50:25.637Z,101724.47
2024-02-21T01:52:54.473Z,101725.34
2024-02-21T01:55:23.125Z,101726.47
2024-02-21T01:57:51.732Z,101724.22
2024-02-21T02:00:22.616Z,101721.22
2024-02-21T02:02:52.254Z,101722.09
2024-02-21T02:05:22.295Z,101710.84
2024-02-21T02:07:50.940Z,101708.66
2024-02-21T02:10:19.639Z,101707.59
2024-02-21T02:12:48.161Z,101703.97
2024-02-21T02:15:16.668Z,101694.97
2024-02-21T02:17:46.605Z,101700.72
2024-02-21T02:20:15.821Z,101698.78
2024-02-21T02:22:46.672Z,101692.25
2024-02-21T02:25:16.708Z,101687.56
2024-02-21T02:27:46.381Z,101685.38
2024-02-21T02:30:15.268Z,101690.78
2024-02-21T02:32:47.056Z,101683.41
2024-02-21T02:35:15.999Z,101686.41
2024-02-21T02:37:50.662Z,101686.34
2024-02-21T02:40:20.954Z,101671.03
2024-02-21T02:42:50.140Z,101675.41
2024-02-21T02:45:18.873Z,101675.97
2024-02-21T02:47:48.261Z,101677.03
2024-02-21T02:50:17.037Z,101678.34
2024-02-21T02:52:45.553Z,101667.91
2024-02-21T02:55:14.487Z,101658.94
2024-02-21T02:57:44.661Z,101659.47
2024-02-21T03:00:14.419Z,101661.31
2024-02-21T03:02:44.546Z,101652.34
2024-02-21T03:05:16.084Z,101656.72
2024-02-21T03:07:45.544Z,101654.50
2024-02-21T03:10:15.349Z,101651.22
2024-02-21T03:12:45.421Z,101642.44
2024-02-21T03:15:14.950Z,101644.09
2024-02-21T03:17:43.871Z,101641.09
2024-02-21T03:20:13.877Z,101634.25
2024-02-21T03:22:43.044Z,101632.28
2024-02-21T03:25:11.883Z,101622.16
2024-02-21T03:27:40.517Z,101627.34
2024-02-21T03:30:11.524Z,101629.75
2024-02-21T03:32:40.419Z,101624.81
2024-02-21T03:35:09.490Z,101626.19
2024-02-21T03:37:38.075Z,101630.88
2024-02-21T03:40:10.220Z,101625.88
2024-02-21T03:42:39.288Z,101630.25
2024-02-21T03:45:08.929Z,101619.84
2024-02-21T03:47:39.417Z,101615.47
2024-02-21T03:50:09.060Z,101607.47
2024-02-21T03:52:37.715Z,101612.72
2024-02-21T03:55:06.707Z,101599.03
2024-02-21T03:57:35.228Z,101598.50
2024-02-21T04:00:04.770Z,101599.56
2024-02-21T04:02:33.334Z,101597.34
2024-02-21T04:05:03.266Z,101596.72
2024-02-21T04:07:31.938Z,101601.91
2024-02-21T04:10:09.127Z,101585.56
2024-02-21T04:12:39.400Z,101585.88
2024-02-21T04:15:08.564Z,101591.56
2024-02-21T04:17:37.075Z,101581.44
2024-02-21T04:20:09.938Z,101570.28
2024-02-21T04:22:38.734Z,101569.72
2024-02-21T04:25:08.321Z,101559.34
2024-02-21T04:27:36.803Z,101555.75
2024-02-21T04:30:06.087Z,101556.84
2024-02-21T04:32:35.123Z,101553.28
2024-02-21T04:35:03.850Z,101548.34
2024-02-21T04:37:33.805Z,101537.72
2024-02-21T04:40:03.124Z,101534.97
2024-02-21T04:42:31.660Z,101523.75
2024-02-21T04:45:00.243Z,101500.22
2024-02-21T04:47:29.592Z,101505.41
2024-02-21T04:49:58.119Z,101509.25
2024-02-21T04:52:26.610Z,101508.44
2024-02-21T04:54:56.929Z,101510.31
2024-02-21T04:57:26.400Z,101503.59
2024-02-21T04:59:54.874Z,101504.41
2024-02-21T05:02:25.416Z,101494.00
2024-02-21T05:04:54.974Z,101494.50
2024-02-21T05:07:23.901Z,101497.81
2024-02-21T05:09:52.362Z,101491.53
2024-02-21T05:12:22.262Z,101507.66
2024-02-21T05:14:50.783Z,101502.75
2024-02-21T05:17:19.453Z,101496.72
2024-02-21T05:19:48.077Z,101497.03
2024-02-21T05:22:16.636Z,101491.56
2024-02-21T05:24:45.192Z,101494.81
2024-02-21T05:27:13.683Z,101498.97
2024-02-21T05:29:43.578Z,101496.22
2024-02-21T05:32:12.158Z,101492.09
2024-02-21T05:34:41.045Z,101491.84
2024-02-21T05:37:09.893Z,101494.59
2024-02-21T05:39:38.350Z,101496.81
2024-02-21T05:42:07.194Z,101505.00
2024-02-21T05:44:35.713Z,101500.06
2024-02-21T05:47:06.331Z,101493.19
2024-02-21T05:49:34.876Z,101489.13
2024-02-21T05:52:03.539Z,101492.16
2024-02-21T05:54:32.013Z,101494.09
2024-02-21T05:57:00.554Z,101483.41
2024-02-21T05:59:29.061Z,101481.22
2024-02-21T06:01:59.050Z,101480.66
2024-02-21T06:04:29.222Z,101482.84
2024-02-21T06:06:57.732Z,101483.13
2024-02-21T06:09:26.231Z,101474.09
2024-02-21T06:11:54.787Z,101475.19
2024-02-21T06:14:23.669Z,101471.91
2024-02-21T06:16:52.214Z,101471.34
2024-02-21T06:19:20.908Z,101466.97
2024-02-21T06:21:50.905Z,101466.72
2024-02-21T06:24:19.367Z,101453.09
2024-02-21T06:26:47.866Z,101463.72
2024-02-21T06:29:16.402Z,101465.13
2024-02-21T06:31:44.945Z,101464.00
2024-02-21T06:34:13.595Z,101466.25
2024-02-21T06:36:42.154Z,101463.50
2024-02-21T06:39:12.568Z,101459.38
2024-02-21T06:41:41.613Z,101459.38
2024-02-21T06:44:10.182Z,101465.13
2024-02-21T06:46:38.743Z,101463.53
2024-02-21T06:49:07.388Z,101459.16
2024-02-21T06:51:36.289Z,101464.63
2024-02-21T06:54:04.814Z,101463.53
2024-02-21T06:56:34.749Z,101465.72
2024-02-21T06:59:04.508Z,101462.47
2024-02-21T07:01:33.237Z,101461.91
2024-02-21T07:04:01.988Z,101466.84
2024-02-21T07:06:33.860Z,101473.13
2024-02-21T07:09:03.708Z,101480.00
2024-02-21T07:11:32.337Z,101472.31
2024-02-21T07:14:02.336Z,101476.97
2024-02-21T07:16:30.937Z,101477.28
2024-02-21T07:18:59.570Z,101480.81
2024-02-21T07:21:28.087Z,101474.00
2024-02-21T07:23:56.519Z,101465.25
2024-02-21T07:26:25.016Z,101468.00
2024-02-21T07:28:53.568Z,101476.19
2024-02-21T07:31:23.493Z,101465.81
2024-02-21T07:33:52.064Z,101465.53
2024-02-21T07:36:30.421Z,101465.81
2024-02-21T07:38:59.016Z,101462.53
2024-02-21T07:41:27.662Z,101462.56
2024-02-21T07:43:56.220Z,101468.28
2024-02-21T07:46:26.258Z,101472.66
2024-02-21T07:48:54.842Z,101457.06
2024-02-21T07:51:23.317Z,101459.81
2024-02-21T07:53:52.003Z,101468.00
2024-02-21T07:56:20.467Z,101463.66
2024-02-21T07:58:49.003Z,101469.69
2024-02-21T08:01:20.844Z,101464.75
2024-02-21T08:03:51.300Z,101460.69
2024-02-21T08:06:19.865Z,101460.41
2024-02-21T08:08:48.392Z,101456.53
2024-02-21T08:11:17.095Z,101451.63
2024-02-21T08:13:45.729Z,101450.78
2024-02-21T08:16:14.265Z,101451.38
2024-02-21T08:18:45.252Z,101450.25
2024-02-21T08:21:15.301Z,101443.44
2024-02-21T08:23:43.746Z,101450.56
2024-02-21T08:26:12.819Z,101447.28
2024-02-21T08:28:41.424Z,101456.59
2024-02-21T08:31:09.910Z,101449.78
2024-02-21T08:33:38.523Z,101441.81
2024-02-21T08:36:09.034Z,101437.97
2024-02-21T08:38:38.869Z,101453.84
2024-02-21T08:41:07.719Z,101444.28
2024-02-21T08:43:37.126Z,101443.47
2024-02-21T08:46:07.407Z,101447.84
2024-02-21T08:48:36.735Z,101448.13
2024-02-21T08:51:06.687Z,101442.13
2024-02-21T08:53:35.248Z,101444.84
2024-02-21T08:56:05.761Z,101447.06
2024-02-21T08:58:34.405Z,101450.06
2024-02-21T09:01:02.970Z,101444.34
2024-02-21T09:03:32.852Z,101447.06
2024-02-21T09:06:01.768Z,101452.78
2024-02-21T09:08:30.572Z,101458.28
2024-02-21T09:10:59.148Z,101455.00
2024-02-21T09:13:29.147Z,101446.78
2024-02-21T09:15:57.864Z,101448.69
2024-02-21T09:18:26.483Z,101449.25
2024-02-21T09:20:55.007Z,101440.75
2024-02-21T09:23:26.451Z,101433.66
2024-02-21T09:25:56.561Z,101434.69
2024-02-21T09:28:25.212Z,101444.56
2024-02-21T09:30:55.192Z,101452.22
2024-02-21T09:33:30.795Z,101431.41
2024-02-21T09:36:02.230Z,101432.50
2024-02-21T09:38:30.760Z,101429.19
2024-02-21T09:41:02.845Z,101418.75
2024-02-21T09:43:31.515Z,101427.50
2024-02-21T09:46:02.436Z,101417.38
2024-02-21T09:48:45.963Z,101428.28
2024-02-21T09:51:16.564Z,101416.72
2024-02-21T09:53:55.035Z,101412.63
2024-02-21T09:56:30.973Z,101423.56
2024-02-21T09:59:00.868Z,101430.69
2024-02-21T10:01:34.924Z,101426.84
2024-02-21T10:04:06.120Z,101433.16
2024-02-21T10:06:35.058Z,101416.44
2024-02-21T10:09:03.725Z,101417.75
2024-02-21T10:11:32.569Z,101426.28
2024-02-21T10:14:07.734Z,101421.59
2024-02-21T10:16:38.832Z,101416.66
2024-02-21T10:19:07.559Z,101416.63
2024-02-21T10:21:36.173Z,101429.56
2024-02-21T10:24:05.268Z,101422.94
2024-02-21T10:26:33.733Z,101419.63
2024-02-21T10:29:03.873Z,101424.56
2024-02-21T10:31:32.466Z,101420.44
2024-02-21T10:34:04.844Z,101428.97
2024-02-21T10:36:33.650Z,101424.56
2024-02-21T10:39:02.187Z,101423.41
2024-02-21T10:41:32.304Z,101429.97
2024-02-21T10:44:02.622Z,101438.75
2024-02-21T10:46:33.468Z,101418.44
2024-02-21T10:49:12.469Z,101418.44
2024-02-21T10:51:45.571Z,101421.19
2024-02-21T10:54:32.404Z,101404.72
2024-02-21T10:57:04.920Z,101409.66
2024-02-21T10:59:34.615Z,101401.13
2024-02-21T11:02:04.175Z,101406.88
2024-02-21T11:04:37.577Z,101391.81
2024-02-21T11:07:10.944Z,101407.47
2024-02-21T11:09:40.291Z,101394.91
2024-02-21T11:12:10.019Z,101401.47
2024-02-21T11:14:42.917Z,101376.78
2024-02-21T11:17:18.677Z,101370.72
2024-02-21T11:19:49.434Z,101369.69
2024-02-21T11:22:19.227Z,101368.50
2024-02-21T11:24:48.507Z,101353.66
2024-02-21T11:27:18.067Z,101362.72
2024-02-21T11:29:47.115Z,101349.63
2024-02-21T11:32:17.472Z,101339.41
2024-02-21T11:34:57.476Z,101344.03
2024-02-21T11:37:28.768Z,101336.97
2024-02-21T11:39:57.494Z,101335.75
2024-02-21T11:42:27.512Z,101325.88
2024-02-21T11:44:58.122Z,101318.53
2024-02-21T11:47:27.513Z,101318.22
2024-02-21T11:49:57.589Z,101318.97
2024-02-21T11:52:29.198Z,101310.13
2024-02-21T11:55:05.753Z,101295.56
2024-02-21T11:57:36.617Z,101291.88
2024-02-21T12:00:15.228Z,101290.84
2024-02-21T12:02:44.197Z,101299.16
2024-02-21T12:05:14.449Z,101295.81
2024-02-21T12:07:43.528Z,101282.53
2024-02-21T12:10:12.953Z,101287.84
2024-02-21T12:12:42.102Z,101288.66
2024-02-21T12:15:10.964Z,101270.56
2024-02-21T12:17:40.103Z,101275.56
2024-02-21T12:20:10.644Z,101267.31
2024-02-21T12:22:41.434Z,101266.28
2024-02-21T12:25:19.123Z,101248.81
2024-02-21T12:27:47.739Z,101250.66
2024-02-21T12:30:16.591Z,101245.75
2024-02-21T12:32:45.284Z,101234.97
2024-02-21T12:35:14.385Z,101253.31
2024-02-21T12:37:44.414Z,101234.75
2024-02-21T12:40:14.721Z,101235.44
2024-02-21T12:42:44.137Z,101228.53
2024-02-21T12:45:13.148Z,101226.38
2024-02-21T12:47:41.925Z,101230.72
2024-02-21T12:50:11.213Z,101225.59
2024-02-21T12:52:39.987Z,101238.44
2024-02-21T12:55:12.334Z,101222.38
2024-02-21T12:57:41.173Z,101217.03
2024-02-21T13:00:12.554Z,101216.94
2024-02-21T13:02:41.493Z,101208.97
2024-02-21T13:05:10.598Z,101203.91
2024-02-21T13:07:39.385Z,101200.94
2024-02-21T13:10:10.569Z,101198.28
2024-02-21T13:12:39.365Z,101192.44
2024-02-21T13:15:11.075Z,101200.50
2024-02-21T13:17:39.709Z,101197.91
2024-02-21T13:20:09.672Z,101192.53
2024-02-21T13:22:38.442Z,101201.09
2024-02-21T13:25:08.506Z,101179.97
2024-02-21T13:27:38.601Z,101177.50
2024-02-21T13:30:10.069Z,101173.41
2024-02-21T13:32:39.207Z,101170.50
2024-02-21T13:35:08.576Z,101172.22
2024-02-21T13:37:38.274Z,101169.34
2024-02-21T13:40:08.685Z,101167.72
2024-02-21T13:42:39.016Z,101167.72
2024-02-21T13:45:08.537Z,101167.81
2024-02-21T13:47:39.756Z,101153.63
2024-02-21T13:50:12.100Z,101154.22
2024-02-21T13:52:40.715Z,101161.66
2024-02-21T13:55:10.787Z,101161.44
2024-02-21T13:57:40.870Z,101160.63
2024-02-21T14:00:11.989Z,101153.78
2024-02-21T14:02:40.909Z,101145.59
2024-02-21T14:05:10.319Z,101149.84
2024-02-21T14:07:40.787Z,101136.09
2024-02-21T14:10:11.757Z,101146.78
2024-02-21T14:12:41.792Z,101147.81
2024-02-21T14:15:11.207Z,101139.28
2024-02-21T14:17:40.391Z,101138.47
2024-02-21T14:20:10.961Z,101136.75
2024-02-21T14:22:40.214Z,101141.22
2024-02-21T14:25:09.649Z,101134.06
2024-02-21T14:27:38.225Z,101139.28
2024-02-21T14:30:12.243Z,101132.06
2024-02-21T14:32:45.794Z,101132.44
2024-02-21T14:35:14.835Z,101124.81
2024-02-21T14:37:43.515Z,101123.38
2024-02-21T14:40:13.444Z,101121.38
2024-02-21T14:42:42.021Z,101119.44
2024-02-21T14:45:12.760Z,101117.06
2024-02-21T14:47:41.486Z,101113.81
2024-02-21T14:50:10.727Z,101112.69
2024-02-21T14:52:39.548Z,101101.38
2024-02-21T14:55:09.512Z,101098.50
2024-02-21T14:57:39.177Z,101107.50
2024-02-21T15:00:10.923Z,101095.25
2024-02-21T15:02:41.187Z,101092.41
2024-02-21T15:05:10.470Z,101093.00
2024-02-21T15:07:39.099Z,101090.78
2024-02-21T15:10:09.097Z,101088.44
2024-02-21T15:12:37.696Z,101068.78
2024-02-21T15:15:07.218Z,101071.59
2024-02-21T15:17:35.886Z,101074.25
2024-02-21T15:20:08.855Z,101057.34
2024-02-21T15:22:37.938Z,101056.22
2024-02-21T15:25:07.461Z,101048.19
2024-02-21T15:27:40.339Z,101051.66
2024-02-21T15:30:10.498Z,101033.19
2024-02-21T15:32:39.317Z,101030.44
2024-02-21T15:35:09.597Z,101027.81
2024-02-21T15:37:38.497Z,101023.50
2024-02-21T15:40:09.419Z,101024.63
2024-02-21T15:42:39.282Z,101010.66
2024-02-21T15:45:09.309Z,100996.78
2024-02-21T15:47:38.063Z,100997.59
2024-02-21T15:50:08.632Z,100993.13
2024-02-21T15:52:38.773Z,100995.50
2024-02-21T15:55:11.999Z,100979.00
2024-02-21T15:57:40.999Z,100982.44
2024-02-21T16:00:13.349Z,100972.06
2024-02-21T16:02:43.196Z,100969.53
2024-02-21T16:05:12.718Z,100967.16
2024-02-21T16:07:43.933Z,100971.47
2024-02-21T16:10:12.522Z,100966.72
2024-02-21T16:12:42.446Z,100955.44
2024-02-21T16:15:12.843Z,100955.09
2024-02-21T16:17:41.786Z,100954.66
2024-02-21T16:20:11.738Z,100953.41
2024-02-21T16:22:40.928Z,100957.56
2024-02-21T16:25:11.420Z,100952.16
2024-02-21T16:27:41.927Z,100952.47
2024-02-21T16:30:11.005Z,100958.59
2024-02-21T16:32:43.928Z,100948.22
2024-02-21T16:35:13.276Z,100952.22
2024-02-21T16:37:42.234Z,100950.53
2024-02-21T16:40:13.553Z,100941.34
2024-02-21T16:42:42.081Z,100940.81
2024-02-21T16:45:11.177Z,100944.22
2024-02-21T16:47:39.747Z,100943.97
2024-02-21T16:50:09.354Z,100942.13
2024-02-21T16:52:38.175Z,100946.03
2024-02-21T16:55:08.686Z,100953.22
2024-02-21T16:57:39.822Z,100944.72
2024-02-21T17:00:12.744Z,100939.22
2024-02-21T17:02:48.437Z,100948.94
2024-02-21T17:05:26.336Z,100945.66
2024-02-21T17:07:55.738Z,100952.78
2024-02-21T17:10:24.716Z,100945.66
2024-02-21T17:12:55.084Z,100945.78
2024-02-21T17:15:23.661Z,100943.13
2024-02-21T17:17:52.367Z,100937.97
2024-02-21T17:20:21.071Z,100923.81
2024-02-21T17:22:49.651Z,100928.41
2024-02-21T17:25:18.434Z,100919.09
2024-02-21T17:27:47.010Z,100920.25
2024-02-21T17:30:17.254Z,100911.31
2024-02-21T17:32:46.311Z,100908.31
2024-02-21T17:35:16.531Z,100893.56
2024-02-21T17:37:45.168Z,100876.56
2024-02-21T17:40:14.598Z,100879.88
2024-02-21T17:42:43.086Z,100875.81
2024-02-21T17:45:12.024Z,100867.44
2024-02-21T17:47:41.976Z,100873.44
2024-02-21T17:50:10.835Z,100872.91
2024-02-21T17:52:39.506Z,100875.13
2024-02-21T17:55:08.845Z,100874.00
2024-02-21T17:57:37.455Z,100869.13
2024-02-21T18:00:08.478Z,100862.53
2024-02-21T18:02:37.552Z,100870.25
2024-02-21T18:05:08.137Z,100858.78
2024-02-21T18:07:37.520Z,100860.69
2024-02-21T18:10:06.695Z,100854.94
2024-02-21T18:12:35.507Z,100842.91
2024-02-21T18:15:04.164Z,100839.16
2024-02-21T18:17:34.219Z,100822.28
2024-02-21T18:20:05.293Z,100825.59
2024-02-21T18:22:35.907Z,100822.31
2024-02-21T18:25:04.846Z,100818.53
2024-02-21T18:27:33.616Z,100814.47
2024-02-21T18:30:03.430Z,100808.38
2024-02-21T18:32:32.292Z,100794.44
2024-02-21T18:35:01.850Z,100801.88
2024-02-21T18:37:31.148Z,100806.53
2024-02-21T18:40:01.144Z,100796.69
2024-02-21T18:42:29.657Z,100793.44
2024-02-21T18:44:58.234Z,100780.09
2024-02-21T18:47:26.840Z,100763.13
2024-02-21T18:49:55.477Z,100755.50
2024-02-21T18:52:24.098Z,100747.97
2024-02-21T18:54:52.656Z,100737.34
2024-02-21T18:57:22.583Z,100736.06
2024-02-21T18:59:51.081Z,100734.13
2024-02-21T19:02:19.679Z,100737.66
2024-02-21T19:04:48.428Z,100714.63
2024-02-21T19:07:17.617Z,100705.88
2024-02-21T19:09:46.161Z,100709.47
2024-02-21T19:12:15.064Z,100708.09
2024-02-21T19:14:44.968Z,100696.91
2024-02-21T19:17:13.492Z,100681.88
2024-02-21T19:19:43.524Z,100680.25
2024-02-21T19:22:12.134Z,100673.97
2024-02-21T19:24:41.233Z,100671.56
2024-02-21T19:27:10.057Z,100671.06
2024-02-21T19:29:39.874Z,100665.34
2024-02-21T19:32:09.876Z,100679.56
2024-02-21T19:34:41.458Z,100660.13
2024-02-21T19:37:11.162Z,100675.91
2024-02-21T19:39:39.690Z,100663.03
2024-02-21T19:42:08.362Z,100647.91
2024-02-21T19:44:36.885Z,100656.72
2024-02-21T19:47:06.459Z,100642.50
2024-02-21T19:49:36.405Z,100636.22
2024-02-21T19:52:05.539Z,100627.50
2024-02-21T19:54:34.012Z,100627.19
2024-02-21T19:57:03.805Z,100617.06
2024-02-21T19:59:34.103Z,100623.88
2024-02-21T20:02:02.754Z,100629.63
2024-02-21T20:04:31.494Z,100652.41
2024-02-21T20:07:01.615Z,100654.00
2024-02-21T20:09:30.092Z,100638.63
2024-02-21T20:11:59.894Z,100617.06
2024-02-21T20:14:28.531Z,100615.66
2024-02-21T20:16:57.140Z,100615.72
2024-02-21T20:19:25.875Z,100613.81
2024-02-21T20:21:54.899Z,100605.06
2024-02-21T20:24:35.126Z,100587.84
2024-02-21T20:27:08.434Z,100588.97
2024-02-21T20:29:36.965Z,100583.47
2024-02-21T20:32:06.145Z,100575.19
2024-02-21T20:34:34.834Z,100584.94
2024-02-21T20:37:07.158Z,100564.75
2024-02-21T20:39:37.998Z,100561.66
2024-02-21T20:42:06.969Z,100551.00
2024-02-21T20:44:35.657Z,100548.88
2024-02-21T20:47:05.211Z,100553.16
2024-02-21T20:49:33.823Z,100548.19
2024-02-21T20:52:02.503Z,100539.75
2024-02-21T20:54:32.887Z,100534.81
2024-02-21T20:57:03.373Z,100535.22
2024-02-21T20:59:31.822Z,100532.81
2024-02-21T21:02:03.531Z,100528.94
2024-02-21T21:04:33.487Z,100522.38
2024-02-21T21:07:02.937Z,100524.28
2024-02-21T21:09:31.509Z,100517.19
2024-02-21T21:12:00.120Z,100527.88
2024-02-21T21:14:30.117Z,100528.44
2024-02-21T21:16:58.761Z,100522.28
2024-02-21T21:19:29.157Z,100526.88
2024-02-21T21:21:59.986Z,100522.78
2024-02-21T21:24:28.662Z,100512.66
2024-02-21T21:26:57.186Z,100512.88
2024-02-21T21:29:25.671Z,100506.00
2024-02-21T21:31:55.610Z,100508.97
2024-02-21T21:34:24.311Z,100508.44
2024-02-21T21:36:52.865Z,100513.91
2024-02-21T21:39:21.990Z,100502.94
2024-02-21T21:41:50.575Z,100495.25
2024-02-21T21:44:19.187Z,100494.88
2024-02-21T21:46:48.948Z,100488.28
2024-02-21T21:49:18.973Z,100492.44
2024-02-21T21:51:47.512Z,100491.41
2024-02-21T21:54:16.054Z,100490.81
2024-02-21T21:56:44.585Z,100484.91
2024-02-21T21:59:13.354Z,100478.63
2024-02-21T22:01:42.058Z,100473.94
2024-02-21T22:04:11.375Z,100472.63
2024-02-21T22:06:41.545Z,100461.50
2024-02-21T22:09:10.610Z,100459.56
2024-02-21T22:11:40.012Z,100457.13
2024-02-21T22:14:09.882Z,100457.25
2024-02-21T22:16:38.726Z,100447.31
2024-02-21T22:19:07.345Z,100440.94
2024-02-21T22:21:35.882Z,100449.63
2024-02-21T22:24:06.247Z,100435.22
2024-02-21T22:26:34.813Z,100435.81
2024-02-21T22:29:03.474Z,100431.16
2024-02-21T22:31:32.339Z,100433.63
2024-02-21T22:34:01.483Z,100433.63
2024-02-21T22:36:31.094Z,100436.53
2024-02-21T22:39:02.347Z,100431.69
2024-02-21T22:41:34.322Z,100415.97
2024-02-21T22:44:04.568Z,100420.63
2024-02-21T22:46:33.745Z,100406.41
2024-02-21T22:49:03.180Z,100394.97
2024-02-21T22:51:32.912Z,100388.66
2024-02-21T22:54:02.045Z,100387.44
2024-02-21T22:56:30.817Z,100379.84
2024-02-21T22:59:00.818Z,100385.63
2024-02-21T23:01:29.366Z,100372.72
2024-02-21T23:03:58.423Z,100377.41
2024-02-21T23:06:27.383Z,100360.16
2024-02-21T23:08:56.050Z,100362.59
2024-02-21T23:11:24.635Z,100343.41
2024-02-21T23:13:53.191Z,100352.97
2024-02-21T23:16:23.098Z,100346.78
2024-02-21T23:18:52.641Z,100344.13
2024-02-21T23:21:21.211Z,100346.56
2024-02-21T23:23:49.799Z,100329.34
2024-02-21T23:26:18.382Z,100327.09
2024-02-21T23:28:46.907Z,100324.66
2024-02-21T23:31:15.449Z,100323.38
2024-02-21T23:33:45.717Z,100314.41
2024-02-21T23:36:14.935Z,100303.97
2024-02-21T23:38:44.223Z,100303.88
2024-02-21T23:41:12.836Z,100295.25
2024-02-21T23:43:43.156Z,100300.94
2024-02-21T23:46:12.252Z,100301.13
2024-02-21T23:48:41.473Z,100286.91
2024-02-21T23:51:11.522Z,100286.09
2024-02-21T23:53:39.982Z,100270.31
2024-02-21T23:56:11.865Z,100265.44
2024-02-21T23:58:40.508Z,100268.66
